sensor_id;sensor_type;location;lat;lon;timestamp;P1;durP1;ratioP1;P2;durP2;ratioP2
33864;SDS011;20159;51.072;13.526;2023-05-10T00:00:33;3.75;;;2.60;;
33864;SDS011;20159;51.072;13.526;2023-05-10T00:02:59;3.65;;;2.75;;
33864;SDS011;20159;51.072;13.526;2023-05-10T00:05:24;4.05;;;2.90;;
33864;SDS011;20159;51.072;13.526;2023-05-10T00:07:50;3.53;;;2.83;;
33864;SDS011;20159;51.072;13.526;2023-05-10T00:10:16;4.00;;;3.13;;
33864;SDS011;20159;51.072;13.526;2023-05-10T00:12:41;3.35;;;2.95;;
33864;SDS011;20159;51.072;13.526;2023-05-10T00:15:07;4.20;;;3.10;;
33864;SDS011;20159;51.072;13.526;2023-05-10T00:17:33;3.22;;;2.65;;
33864;SDS011;20159;51.072;13.526;2023-05-10T00:19:59;3.40;;;2.83;;
33864;SDS011;20159;51.072;13.526;2023-05-10T00:22:25;3.47;;;2.80;;
33864;SDS011;20159;51.072;13.526;2023-05-10T00:24:51;3.90;;;2.83;;
33864;SDS011;20159;51.072;13.526;2023-05-10T00:27:16;3.50;;;3.20;;
33864;SDS011;20159;51.072;13.526;2023-05-10T00:29:42;3.45;;;3.05;;
33864;SDS011;20159;51.072;13.526;2023-05-10T00:32:07;4.00;;;3.35;;
33864;SDS011;20159;51.072;13.526;2023-05-10T00:34:33;3.70;;;2.70;;
33864;SDS011;20159;51.072;13.526;2023-05-10T00:36:58;3.53;;;3.05;;
33864;SDS011;20159;51.072;13.526;2023-05-10T00:39:24;4.57;;;3.03;;
33864;SDS011;20159;51.072;13.526;2023-05-10T00:41:49;4.20;;;3.08;;
33864;SDS011;20159;51.072;13.526;2023-05-10T00:44:15;3.13;;;2.65;;
33864;SDS011;20159;51.072;13.526;2023-05-10T00:46:40;3.63;;;3.17;;
33864;SDS011;20159;51.072;13.526;2023-05-10T00:49:06;5.88;;;3.38;;
33864;SDS011;20159;51.072;13.526;2023-05-10T00:51:32;3.47;;;2.90;;
33864;SDS011;20159;51.072;13.526;2023-05-10T00:53:58;3.75;;;2.70;;
33864;SDS011;20159;51.072;13.526;2023-05-10T00:56:23;3.38;;;2.92;;
33864;SDS011;20159;51.072;13.526;2023-05-10T00:58:50;5.03;;;2.97;;
33864;SDS011;20159;51.072;13.526;2023-05-10T01:01:15;4.43;;;3.17;;
33864;SDS011;20159;51.072;13.526;2023-05-10T01:03:41;3.15;;;2.75;;
33864;SDS011;20159;51.072;13.526;2023-05-10T01:06:07;3.70;;;2.97;;
33864;SDS011;20159;51.072;13.526;2023-05-10T01:08:32;4.05;;;2.92;;
33864;SDS011;20159;51.072;13.526;2023-05-10T01:10:58;3.78;;;2.92;;
33864;SDS011;20159;51.072;13.526;2023-05-10T01:13:33;5.22;;;3.00;;
33864;SDS011;20159;51.072;13.526;2023-05-10T01:16:02;3.53;;;2.85;;
33864;SDS011;20159;51.072;13.526;2023-05-10T01:18:32;5.25;;;3.05;;
33864;SDS011;20159;51.072;13.526;2023-05-10T01:29:51;3.95;;;3.30;;
33864;SDS011;20159;51.072;13.526;2023-05-10T01:32:40;4.07;;;2.92;;
33864;SDS011;20159;51.072;13.526;2023-05-10T01:35:17;4.13;;;3.27;;
33864;SDS011;20159;51.072;13.526;2023-05-10T01:37:59;3.17;;;2.85;;
33864;SDS011;20159;51.072;13.526;2023-05-10T01:40:38;6.03;;;2.97;;
33864;SDS011;20159;51.072;13.526;2023-05-10T01:45:58;3.42;;;2.85;;
33864;SDS011;20159;51.072;13.526;2023-05-10T01:48:35;3.63;;;2.88;;
33864;SDS011;20159;51.072;13.526;2023-05-10T01:51:11;3.05;;;2.75;;
33864;SDS011;20159;51.072;13.526;2023-05-10T01:53:39;3.65;;;3.00;;
33864;SDS011;20159;51.072;13.526;2023-05-10T01:56:06;3.72;;;2.88;;
33864;SDS011;20159;51.072;13.526;2023-05-10T01:58:33;4.00;;;3.15;;
33864;SDS011;20159;51.072;13.526;2023-05-10T02:01:04;4.22;;;3.33;;
33864;SDS011;20159;51.072;13.526;2023-05-10T02:03:32;3.40;;;3.10;;
33864;SDS011;20159;51.072;13.526;2023-05-10T02:06:00;3.17;;;2.70;;
33864;SDS011;20159;51.072;13.526;2023-05-10T02:08:27;4.10;;;3.38;;
33864;SDS011;20159;51.072;13.526;2023-05-10T02:10:55;3.92;;;3.08;;
33864;SDS011;20159;51.072;13.526;2023-05-10T02:13:21;4.10;;;2.70;;
33864;SDS011;20159;51.072;13.526;2023-05-10T02:15:49;4.53;;;3.40;;
33864;SDS011;20159;51.072;13.526;2023-05-10T02:18:16;3.75;;;2.90;;
33864;SDS011;20159;51.072;13.526;2023-05-10T02:20:44;3.38;;;3.05;;
33864;SDS011;20159;51.072;13.526;2023-05-10T02:23:11;4.85;;;3.17;;
33864;SDS011;20159;51.072;13.526;2023-05-10T02:25:38;4.07;;;3.40;;
33864;SDS011;20159;51.072;13.526;2023-05-10T02:28:04;4.28;;;3.35;;
33864;SDS011;20159;51.072;13.526;2023-05-10T02:30:31;3.80;;;3.35;;
33864;SDS011;20159;51.072;13.526;2023-05-10T02:32:59;5.60;;;3.72;;
33864;SDS011;20159;51.072;13.526;2023-05-10T02:35:26;5.38;;;3.30;;
33864;SDS011;20159;51.072;13.526;2023-05-10T02:37:53;8.30;;;3.47;;
33864;SDS011;20159;51.072;13.526;2023-05-10T02:40:19;4.72;;;3.35;;
33864;SDS011;20159;51.072;13.526;2023-05-10T02:42:46;5.25;;;3.53;;
33864;SDS011;20159;51.072;13.526;2023-05-10T02:45:15;4.35;;;3.78;;
33864;SDS011;20159;51.072;13.526;2023-05-10T02:47:44;6.68;;;4.00;;
33864;SDS011;20159;51.072;13.526;2023-05-10T02:50:10;5.13;;;4.07;;
33864;SDS011;20159;51.072;13.526;2023-05-10T02:52:39;4.10;;;3.55;;
33864;SDS011;20159;51.072;13.526;2023-05-10T02:55:11;4.43;;;3.72;;
33864;SDS011;20159;51.072;13.526;2023-05-10T02:57:46;5.97;;;3.90;;
33864;SDS011;20159;51.072;13.526;2023-05-10T03:00:16;5.45;;;3.58;;
33864;SDS011;20159;51.072;13.526;2023-05-10T03:02:42;4.30;;;3.22;;
33864;SDS011;20159;51.072;13.526;2023-05-10T03:05:07;5.38;;;3.38;;
33864;SDS011;20159;51.072;13.526;2023-05-10T03:07:33;3.53;;;3.08;;
33864;SDS011;20159;51.072;13.526;2023-05-10T03:09:59;4.97;;;3.42;;
33864;SDS011;20159;51.072;13.526;2023-05-10T03:18:21;4.28;;;3.03;;
33864;SDS011;20159;51.072;13.526;2023-05-10T03:20:49;4.30;;;3.03;;
33864;SDS011;20159;51.072;13.526;2023-05-10T03:23:35;5.65;;;3.25;;
33864;SDS011;20159;51.072;13.526;2023-05-10T03:26:12;3.92;;;3.00;;
33864;SDS011;20159;51.072;13.526;2023-05-10T03:28:42;3.42;;;3.13;;
33864;SDS011;20159;51.072;13.526;2023-05-10T03:31:08;5.32;;;3.17;;
33864;SDS011;20159;51.072;13.526;2023-05-10T03:33:34;3.15;;;2.85;;
33864;SDS011;20159;51.072;13.526;2023-05-10T03:36:00;6.70;;;3.17;;
33864;SDS011;20159;51.072;13.526;2023-05-10T03:38:25;6.18;;;3.78;;
33864;SDS011;20159;51.072;13.526;2023-05-10T03:40:51;3.50;;;3.20;;
33864;SDS011;20159;51.072;13.526;2023-05-10T03:43:16;4.70;;;2.80;;
33864;SDS011;20159;51.072;13.526;2023-05-10T03:45:42;3.65;;;2.80;;
33864;SDS011;20159;51.072;13.526;2023-05-10T03:48:07;4.07;;;3.22;;
33864;SDS011;20159;51.072;13.526;2023-05-10T03:50:33;3.50;;;2.88;;
33864;SDS011;20159;51.072;13.526;2023-05-10T03:52:58;3.35;;;3.05;;
33864;SDS011;20159;51.072;13.526;2023-05-10T03:55:24;7.68;;;3.38;;
33864;SDS011;20159;51.072;13.526;2023-05-10T03:57:49;3.88;;;3.33;;
33864;SDS011;20159;51.072;13.526;2023-05-10T04:00:15;3.58;;;3.25;;
33864;SDS011;20159;51.072;13.526;2023-05-10T04:02:41;3.78;;;3.20;;
33864;SDS011;20159;51.072;13.526;2023-05-10T04:05:06;3.65;;;3.22;;
33864;SDS011;20159;51.072;13.526;2023-05-10T04:07:32;3.08;;;2.78;;
33864;SDS011;20159;51.072;13.526;2023-05-10T04:09:58;4.28;;;3.10;;
33864;SDS011;20159;51.072;13.526;2023-05-10T04:12:23;4.03;;;3.15;;
33864;SDS011;20159;51.072;13.526;2023-05-10T04:14:49;3.67;;;3.08;;
33864;SDS011;20159;51.072;13.526;2023-05-10T04:17:15;3.95;;;3.08;;
33864;SDS011;20159;51.072;13.526;2023-05-10T04:19:41;3.33;;;2.90;;
33864;SDS011;20159;51.072;13.526;2023-05-10T04:22:06;3.80;;;3.20;;
33864;SDS011;20159;51.072;13.526;2023-05-10T04:24:32;3.80;;;2.75;;
33864;SDS011;20159;51.072;13.526;2023-05-10T04:26:57;5.05;;;3.38;;
33864;SDS011;20159;51.072;13.526;2023-05-10T04:29:24;4.65;;;2.90;;
33864;SDS011;20159;51.072;13.526;2023-05-10T04:31:49;4.07;;;3.20;;
33864;SDS011;20159;51.072;13.526;2023-05-10T04:34:15;3.13;;;2.63;;
33864;SDS011;20159;51.072;13.526;2023-05-10T04:36:41;3.53;;;2.78;;
33864;SDS011;20159;51.072;13.526;2023-05-10T04:39:06;3.35;;;2.83;;
33864;SDS011;20159;51.072;13.526;2023-05-10T04:41:32;3.10;;;2.80;;
33864;SDS011;20159;51.072;13.526;2023-05-10T04:43:57;3.95;;;3.03;;
33864;SDS011;20159;51.072;13.526;2023-05-10T04:46:23;4.90;;;2.72;;
33864;SDS011;20159;51.072;13.526;2023-05-10T04:48:48;6.03;;;3.15;;
33864;SDS011;20159;51.072;13.526;2023-05-10T04:51:14;8.27;;;2.72;;
33864;SDS011;20159;51.072;13.526;2023-05-10T04:53:39;3.67;;;2.60;;
33864;SDS011;20159;51.072;13.526;2023-05-10T04:56:05;4.88;;;2.60;;
33864;SDS011;20159;51.072;13.526;2023-05-10T04:58:31;3.00;;;2.25;;
33864;SDS011;20159;51.072;13.526;2023-05-10T05:00:56;4.28;;;2.17;;
33864;SDS011;20159;51.072;13.526;2023-05-10T05:03:22;4.32;;;2.28;;
33864;SDS011;20159;51.072;13.526;2023-05-10T05:05:47;3.40;;;2.17;;
33864;SDS011;20159;51.072;13.526;2023-05-10T05:08:13;3.97;;;1.95;;
33864;SDS011;20159;51.072;13.526;2023-05-10T05:10:39;6.22;;;2.22;;
33864;SDS011;20159;51.072;13.526;2023-05-10T05:13:04;2.75;;;1.90;;
33864;SDS011;20159;51.072;13.526;2023-05-10T05:15:30;2.97;;;2.03;;
33864;SDS011;20159;51.072;13.526;2023-05-10T05:17:55;3.83;;;2.00;;
33864;SDS011;20159;51.072;13.526;2023-05-10T05:20:21;4.85;;;1.95;;
33864;SDS011;20159;51.072;13.526;2023-05-10T05:22:47;3.05;;;1.70;;
33864;SDS011;20159;51.072;13.526;2023-05-10T05:25:12;10.57;;;2.15;;
33864;SDS011;20159;51.072;13.526;2023-05-10T05:27:38;2.95;;;1.70;;
33864;SDS011;20159;51.072;13.526;2023-05-10T05:30:03;2.67;;;1.80;;
33864;SDS011;20159;51.072;13.526;2023-05-10T05:32:29;3.60;;;1.90;;
33864;SDS011;20159;51.072;13.526;2023-05-10T05:34:55;5.47;;;2.00;;
33864;SDS011;20159;51.072;13.526;2023-05-10T05:37:21;3.58;;;1.90;;
33864;SDS011;20159;51.072;13.526;2023-05-10T05:39:47;4.03;;;2.20;;
33864;SDS011;20159;51.072;13.526;2023-05-10T05:42:13;3.15;;;1.85;;
33864;SDS011;20159;51.072;13.526;2023-05-10T05:44:39;3.28;;;2.20;;
33864;SDS011;20159;51.072;13.526;2023-05-10T05:47:05;2.60;;;1.85;;
33864;SDS011;20159;51.072;13.526;2023-05-10T05:49:31;3.17;;;2.00;;
33864;SDS011;20159;51.072;13.526;2023-05-10T05:52:00;7.43;;;2.03;;
33864;SDS011;20159;51.072;13.526;2023-05-10T05:54:27;2.08;;;1.70;;
33864;SDS011;20159;51.072;13.526;2023-05-10T05:56:59;2.17;;;1.67;;
33864;SDS011;20159;51.072;13.526;2023-05-10T05:59:25;2.70;;;1.60;;
33864;SDS011;20159;51.072;13.526;2023-05-10T06:01:51;2.38;;;1.52;;
33864;SDS011;20159;51.072;13.526;2023-05-10T06:04:17;1.85;;;1.38;;
33864;SDS011;20159;51.072;13.526;2023-05-10T06:06:43;2.13;;;1.50;;
33864;SDS011;20159;51.072;13.526;2023-05-10T06:09:09;2.17;;;1.75;;
33864;SDS011;20159;51.072;13.526;2023-05-10T06:11:34;1.88;;;1.55;;
33864;SDS011;20159;51.072;13.526;2023-05-10T06:14:00;1.85;;;1.50;;
33864;SDS011;20159;51.072;13.526;2023-05-10T06:16:26;2.67;;;1.58;;
33864;SDS011;20159;51.072;13.526;2023-05-10T06:18:52;2.75;;;1.70;;
33864;SDS011;20159;51.072;13.526;2023-05-10T06:21:17;3.28;;;1.52;;
33864;SDS011;20159;51.072;13.526;2023-05-10T06:23:43;9.02;;;1.60;;
33864;SDS011;20159;51.072;13.526;2023-05-10T06:26:09;2.70;;;1.30;;
33864;SDS011;20159;51.072;13.526;2023-05-10T06:28:34;3.00;;;1.70;;
33864;SDS011;20159;51.072;13.526;2023-05-10T06:31:00;3.20;;;1.42;;
33864;SDS011;20159;51.072;13.526;2023-05-10T06:33:26;2.63;;;1.90;;
33864;SDS011;20159;51.072;13.526;2023-05-10T06:35:52;2.08;;;1.48;;
33864;SDS011;20159;51.072;13.526;2023-05-10T06:38:17;1.92;;;1.30;;
33864;SDS011;20159;51.072;13.526;2023-05-10T06:40:43;2.90;;;1.52;;
33864;SDS011;20159;51.072;13.526;2023-05-10T06:43:09;2.45;;;1.50;;
33864;SDS011;20159;51.072;13.526;2023-05-10T06:45:35;3.85;;;1.70;;
33864;SDS011;20159;51.072;13.526;2023-05-10T06:48:01;3.22;;;1.60;;
33864;SDS011;20159;51.072;13.526;2023-05-10T06:50:26;6.70;;;1.55;;
33864;SDS011;20159;51.072;13.526;2023-05-10T06:52:52;1.67;;;1.33;;
33864;SDS011;20159;51.072;13.526;2023-05-10T06:55:17;2.10;;;1.38;;
33864;SDS011;20159;51.072;13.526;2023-05-10T06:57:43;3.45;;;1.60;;
33864;SDS011;20159;51.072;13.526;2023-05-10T07:00:08;5.28;;;1.75;;
33864;SDS011;20159;51.072;13.526;2023-05-10T07:02:35;2.70;;;1.65;;
33864;SDS011;20159;51.072;13.526;2023-05-10T07:05:00;2.25;;;1.15;;
33864;SDS011;20159;51.072;13.526;2023-05-10T07:07:27;3.17;;;1.48;;
33864;SDS011;20159;51.072;13.526;2023-05-10T07:09:52;2.22;;;1.30;;
33864;SDS011;20159;51.072;13.526;2023-05-10T07:12:18;2.92;;;1.60;;
33864;SDS011;20159;51.072;13.526;2023-05-10T07:14:43;2.10;;;1.42;;
33864;SDS011;20159;51.072;13.526;2023-05-10T07:17:09;2.50;;;1.30;;
33864;SDS011;20159;51.072;13.526;2023-05-10T07:19:35;2.85;;;1.33;;
33864;SDS011;20159;51.072;13.526;2023-05-10T07:22:00;1.85;;;1.30;;
33864;SDS011;20159;51.072;13.526;2023-05-10T07:24:26;2.78;;;1.30;;
33864;SDS011;20159;51.072;13.526;2023-05-10T07:26:52;1.80;;;1.38;;
33864;SDS011;20159;51.072;13.526;2023-05-10T07:29:17;10.05;;;1.70;;
33864;SDS011;20159;51.072;13.526;2023-05-10T07:31:43;1.88;;;1.38;;
33864;SDS011;20159;51.072;13.526;2023-05-10T07:34:08;1.00;;;0.90;;
33864;SDS011;20159;51.072;13.526;2023-05-10T07:36:34;3.53;;;1.40;;
33864;SDS011;20159;51.072;13.526;2023-05-10T07:39:00;1.60;;;1.25;;
33864;SDS011;20159;51.072;13.526;2023-05-10T07:41:26;2.17;;;1.30;;
33864;SDS011;20159;51.072;13.526;2023-05-10T07:43:52;2.88;;;1.30;;
33864;SDS011;20159;51.072;13.526;2023-05-10T07:46:17;2.47;;;1.20;;
33864;SDS011;20159;51.072;13.526;2023-05-10T07:48:44;1.90;;;1.27;;
33864;SDS011;20159;51.072;13.526;2023-05-10T07:51:10;2.15;;;1.50;;
33864;SDS011;20159;51.072;13.526;2023-05-10T07:53:36;2.40;;;1.38;;
33864;SDS011;20159;51.072;13.526;2023-05-10T07:58:45;3.70;;;1.50;;
33864;SDS011;20159;51.072;13.526;2023-05-10T08:01:11;2.40;;;1.30;;
33864;SDS011;20159;51.072;13.526;2023-05-10T08:03:36;1.83;;;1.30;;
33864;SDS011;20159;51.072;13.526;2023-05-10T08:06:02;2.25;;;1.70;;
33864;SDS011;20159;51.072;13.526;2023-05-10T08:08:28;2.35;;;1.65;;
33864;SDS011;20159;51.072;13.526;2023-05-10T08:10:53;2.08;;;1.60;;
33864;SDS011;20159;51.072;13.526;2023-05-10T08:13:19;2.53;;;1.30;;
33864;SDS011;20159;51.072;13.526;2023-05-10T08:15:46;2.05;;;1.30;;
33864;SDS011;20159;51.072;13.526;2023-05-10T08:18:12;2.17;;;1.58;;
33864;SDS011;20159;51.072;13.526;2023-05-10T08:20:37;2.03;;;1.58;;
33864;SDS011;20159;51.072;13.526;2023-05-10T08:23:03;2.38;;;1.60;;
33864;SDS011;20159;51.072;13.526;2023-05-10T08:25:28;2.20;;;1.52;;
33864;SDS011;20159;51.072;13.526;2023-05-10T08:27:54;2.38;;;1.40;;
33864;SDS011;20159;51.072;13.526;2023-05-10T08:30:19;1.80;;;1.38;;
33864;SDS011;20159;51.072;13.526;2023-05-10T08:32:45;7.30;;;1.92;;
33864;SDS011;20159;51.072;13.526;2023-05-10T08:35:11;2.25;;;1.63;;
33864;SDS011;20159;51.072;13.526;2023-05-10T08:37:36;2.10;;;1.60;;
33864;SDS011;20159;51.072;13.526;2023-05-10T08:40:02;3.58;;;1.30;;
33864;SDS011;20159;51.072;13.526;2023-05-10T08:42:28;2.78;;;1.58;;
33864;SDS011;20159;51.072;13.526;2023-05-10T08:44:56;2.65;;;1.52;;
33864;SDS011;20159;51.072;13.526;2023-05-10T08:47:22;2.05;;;1.52;;
33864;SDS011;20159;51.072;13.526;2023-05-10T08:49:48;5.20;;;1.60;;
33864;SDS011;20159;51.072;13.526;2023-05-10T08:52:16;4.60;;;1.70;;
33864;SDS011;20159;51.072;13.526;2023-05-10T08:54:42;11.90;;;1.90;;
33864;SDS011;20159;51.072;13.526;2023-05-10T08:57:08;2.58;;;1.73;;
33864;SDS011;20159;51.072;13.526;2023-05-10T08:59:35;2.03;;;1.63;;
33864;SDS011;20159;51.072;13.526;2023-05-10T09:02:04;2.30;;;1.70;;
33864;SDS011;20159;51.072;13.526;2023-05-10T09:04:31;5.22;;;1.92;;
33864;SDS011;20159;51.072;13.526;2023-05-10T09:06:56;2.20;;;1.70;;
33864;SDS011;20159;51.072;13.526;2023-05-10T09:09:22;3.50;;;1.50;;
33864;SDS011;20159;51.072;13.526;2023-05-10T09:11:50;1.98;;;1.60;;
33864;SDS011;20159;51.072;13.526;2023-05-10T09:14:16;2.42;;;1.90;;
33864;SDS011;20159;51.072;13.526;2023-05-10T09:16:43;3.22;;;1.52;;
33864;SDS011;20159;51.072;13.526;2023-05-10T09:19:09;1.83;;;1.60;;
33864;SDS011;20159;51.072;13.526;2023-05-10T09:21:35;5.45;;;1.67;;
33864;SDS011;20159;51.072;13.526;2023-05-10T09:24:04;2.40;;;1.55;;
33864;SDS011;20159;51.072;13.526;2023-05-10T09:26:31;4.22;;;1.77;;
33864;SDS011;20159;51.072;13.526;2023-05-10T09:28:57;3.25;;;2.00;;
33864;SDS011;20159;51.072;13.526;2023-05-10T09:31:24;2.10;;;1.65;;
33864;SDS011;20159;51.072;13.526;2023-05-10T09:34:14;2.85;;;1.73;;
33864;SDS011;20159;51.072;13.526;2023-05-10T09:36:50;2.30;;;1.83;;
33864;SDS011;20159;51.072;13.526;2023-05-10T09:39:33;4.72;;;1.95;;
33864;SDS011;20159;51.072;13.526;2023-05-10T09:42:01;2.67;;;1.80;;
33864;SDS011;20159;51.072;13.526;2023-05-10T09:44:28;2.35;;;1.63;;
33864;SDS011;20159;51.072;13.526;2023-05-10T09:46:54;4.03;;;2.30;;
33864;SDS011;20159;51.072;13.526;2023-05-10T09:49:23;2.70;;;1.67;;
33864;SDS011;20159;51.072;13.526;2023-05-10T09:52:05;2.42;;;1.75;;
33864;SDS011;20159;51.072;13.526;2023-05-10T09:54:31;3.03;;;1.85;;
33864;SDS011;20159;51.072;13.526;2023-05-10T09:56:58;1.88;;;1.58;;
33864;SDS011;20159;51.072;13.526;2023-05-10T09:59:25;2.45;;;1.80;;
33864;SDS011;20159;51.072;13.526;2023-05-10T10:01:52;2.85;;;1.67;;
33864;SDS011;20159;51.072;13.526;2023-05-10T10:04:21;3.38;;;2.00;;
33864;SDS011;20159;51.072;13.526;2023-05-10T10:06:46;2.55;;;1.90;;
33864;SDS011;20159;51.072;13.526;2023-05-10T10:09:27;2.40;;;1.75;;
33864;SDS011;20159;51.072;13.526;2023-05-10T10:11:53;2.42;;;1.85;;
33864;SDS011;20159;51.072;13.526;2023-05-10T10:14:19;5.03;;;2.10;;
33864;SDS011;20159;51.072;13.526;2023-05-10T10:16:46;3.13;;;1.95;;
33864;SDS011;20159;51.072;13.526;2023-05-10T10:19:12;3.90;;;1.63;;
33864;SDS011;20159;51.072;13.526;2023-05-10T10:21:37;3.58;;;1.90;;
33864;SDS011;20159;51.072;13.526;2023-05-10T10:24:03;1.65;;;1.33;;
33864;SDS011;20159;51.072;13.526;2023-05-10T10:26:34;2.70;;;1.83;;
33864;SDS011;20159;51.072;13.526;2023-05-10T10:29:15;3.17;;;1.83;;
33864;SDS011;20159;51.072;13.526;2023-05-10T10:34:30;2.70;;;2.05;;
33864;SDS011;20159;51.072;13.526;2023-05-10T10:36:57;1.88;;;1.70;;
33864;SDS011;20159;51.072;13.526;2023-05-10T10:39:28;2.65;;;2.00;;
33864;SDS011;20159;51.072;13.526;2023-05-10T10:41:54;3.28;;;1.83;;
33864;SDS011;20159;51.072;13.526;2023-05-10T10:52:31;2.90;;;1.73;;
33864;SDS011;20159;51.072;13.526;2023-05-10T10:57:50;3.45;;;2.15;;
33864;SDS011;20159;51.072;13.526;2023-05-10T11:00:21;5.40;;;1.88;;
33864;SDS011;20159;51.072;13.526;2023-05-10T11:05:39;2.00;;;1.50;;
33864;SDS011;20159;51.072;13.526;2023-05-10T11:08:12;4.38;;;2.20;;
33864;SDS011;20159;51.072;13.526;2023-05-10T11:10:38;2.92;;;2.00;;
33864;SDS011;20159;51.072;13.526;2023-05-10T11:13:08;4.15;;;2.10;;
33864;SDS011;20159;51.072;13.526;2023-05-10T11:15:38;3.42;;;2.00;;
33864;SDS011;20159;51.072;13.526;2023-05-10T11:18:17;3.15;;;2.25;;
33864;SDS011;20159;51.072;13.526;2023-05-10T11:20:45;6.20;;;2.40;;
33864;SDS011;20159;51.072;13.526;2023-05-10T11:23:21;2.42;;;1.92;;
33864;SDS011;20159;51.072;13.526;2023-05-10T11:25:48;2.78;;;2.40;;
33864;SDS011;20159;51.072;13.526;2023-05-10T11:28:16;2.85;;;2.60;;
33864;SDS011;20159;51.072;13.526;2023-05-10T11:30:43;3.70;;;2.75;;
33864;SDS011;20159;51.072;13.526;2023-05-10T11:33:09;3.47;;;2.60;;
33864;SDS011;20159;51.072;13.526;2023-05-10T11:35:41;3.10;;;2.80;;
33864;SDS011;20159;51.072;13.526;2023-05-10T11:41:30;2.90;;;2.60;;
33864;SDS011;20159;51.072;13.526;2023-05-10T11:47:55;2.83;;;2.47;;
33864;SDS011;20159;51.072;13.526;2023-05-10T11:57:25;3.42;;;2.80;;
33864;SDS011;20159;51.072;13.526;2023-05-10T12:00:37;3.65;;;2.65;;
33864;SDS011;20159;51.072;13.526;2023-05-10T12:07:48;2.78;;;2.47;;
33864;SDS011;20159;51.072;13.526;2023-05-10T12:19:38;5.35;;;3.03;;
33864;SDS011;20159;51.072;13.526;2023-05-10T12:22:05;2.67;;;2.17;;
33864;SDS011;20159;51.072;13.526;2023-05-10T12:24:33;4.53;;;2.40;;
33864;SDS011;20159;51.072;13.526;2023-05-10T12:26:59;3.30;;;2.67;;
33864;SDS011;20159;51.072;13.526;2023-05-10T12:29:30;3.17;;;2.65;;
33864;SDS011;20159;51.072;13.526;2023-05-10T12:31:58;2.88;;;2.38;;
33864;SDS011;20159;51.072;13.526;2023-05-10T12:36:54;6.47;;;2.47;;
33864;SDS011;20159;51.072;13.526;2023-05-10T12:39:20;3.08;;;2.67;;
33864;SDS011;20159;51.072;13.526;2023-05-10T12:41:45;3.00;;;2.70;;
33864;SDS011;20159;51.072;13.526;2023-05-10T12:44:11;5.00;;;2.80;;
33864;SDS011;20159;51.072;13.526;2023-05-10T12:46:36;3.17;;;2.40;;
33864;SDS011;20159;51.072;13.526;2023-05-10T12:49:02;3.47;;;2.70;;
33864;SDS011;20159;51.072;13.526;2023-05-10T12:51:27;4.55;;;2.63;;
33864;SDS011;20159;51.072;13.526;2023-05-10T12:53:53;3.20;;;2.58;;
33864;SDS011;20159;51.072;13.526;2023-05-10T12:56:19;3.40;;;2.22;;
33864;SDS011;20159;51.072;13.526;2023-05-10T12:58:45;2.88;;;2.50;;
33864;SDS011;20159;51.072;13.526;2023-05-10T13:01:14;3.25;;;2.30;;
33864;SDS011;20159;51.072;13.526;2023-05-10T13:03:39;4.95;;;2.30;;
33864;SDS011;20159;51.072;13.526;2023-05-10T13:06:05;4.38;;;2.35;;
33864;SDS011;20159;51.072;13.526;2023-05-10T13:08:34;3.95;;;2.22;;
33864;SDS011;20159;51.072;13.526;2023-05-10T13:11:00;3.20;;;2.35;;
33864;SDS011;20159;51.072;13.526;2023-05-10T13:13:25;4.65;;;2.35;;
33864;SDS011;20159;51.072;13.526;2023-05-10T13:15:51;2.72;;;2.13;;
33864;SDS011;20159;51.072;13.526;2023-05-10T13:18:16;3.10;;;2.47;;
33864;SDS011;20159;51.072;13.526;2023-05-10T13:20:42;3.45;;;2.42;;
33864;SDS011;20159;51.072;13.526;2023-05-10T13:23:09;2.50;;;2.15;;
33864;SDS011;20159;51.072;13.526;2023-05-10T13:25:35;2.20;;;2.00;;
33864;SDS011;20159;51.072;13.526;2023-05-10T13:28:00;2.88;;;2.10;;
33864;SDS011;20159;51.072;13.526;2023-05-10T13:30:26;2.72;;;2.45;;
33864;SDS011;20159;51.072;13.526;2023-05-10T13:32:52;2.83;;;2.47;;
33864;SDS011;20159;51.072;13.526;2023-05-10T13:35:17;2.83;;;2.17;;
33864;SDS011;20159;51.072;13.526;2023-05-10T13:37:42;3.05;;;2.20;;
33864;SDS011;20159;51.072;13.526;2023-05-10T13:40:08;3.05;;;2.33;;
33864;SDS011;20159;51.072;13.526;2023-05-10T13:42:34;2.65;;;2.35;;
33864;SDS011;20159;51.072;13.526;2023-05-10T13:45:00;3.03;;;2.05;;
33864;SDS011;20159;51.072;13.526;2023-05-10T13:47:28;3.00;;;2.50;;
33864;SDS011;20159;51.072;13.526;2023-05-10T13:49:54;2.45;;;2.00;;
33864;SDS011;20159;51.072;13.526;2023-05-10T13:52:20;3.33;;;2.30;;
33864;SDS011;20159;51.072;13.526;2023-05-10T13:54:46;3.30;;;2.42;;
33864;SDS011;20159;51.072;13.526;2023-05-10T13:57:11;3.58;;;2.47;;
33864;SDS011;20159;51.072;13.526;2023-05-10T13:59:38;4.10;;;2.28;;
33864;SDS011;20159;51.072;13.526;2023-05-10T14:02:04;2.95;;;2.47;;
33864;SDS011;20159;51.072;13.526;2023-05-10T14:04:30;3.22;;;2.35;;
33864;SDS011;20159;51.072;13.526;2023-05-10T14:06:56;4.57;;;2.13;;
33864;SDS011;20159;51.072;13.526;2023-05-10T14:09:22;3.75;;;2.22;;
33864;SDS011;20159;51.072;13.526;2023-05-10T14:11:47;3.25;;;1.77;;
33864;SDS011;20159;51.072;13.526;2023-05-10T14:14:13;3.38;;;1.95;;
33864;SDS011;20159;51.072;13.526;2023-05-10T14:16:41;2.65;;;2.10;;
33864;SDS011;20159;51.072;13.526;2023-05-10T14:19:08;2.95;;;2.10;;
33864;SDS011;20159;51.072;13.526;2023-05-10T14:21:34;2.17;;;1.98;;
33864;SDS011;20159;51.072;13.526;2023-05-10T14:23:59;3.65;;;1.70;;
33864;SDS011;20159;51.072;13.526;2023-05-10T14:26:25;3.13;;;1.83;;
33864;SDS011;20159;51.072;13.526;2023-05-10T14:28:51;2.13;;;1.85;;
33864;SDS011;20159;51.072;13.526;2023-05-10T14:31:16;3.88;;;1.63;;
33864;SDS011;20159;51.072;13.526;2023-05-10T14:33:44;2.22;;;1.65;;
33864;SDS011;20159;51.072;13.526;2023-05-10T14:36:09;2.38;;;1.88;;
33864;SDS011;20159;51.072;13.526;2023-05-10T14:38:35;2.80;;;2.05;;
33864;SDS011;20159;51.072;13.526;2023-05-10T14:41:00;2.72;;;1.90;;
33864;SDS011;20159;51.072;13.526;2023-05-10T14:43:26;1.77;;;1.33;;
33864;SDS011;20159;51.072;13.526;2023-05-10T14:45:52;2.33;;;1.70;;
33864;SDS011;20159;51.072;13.526;2023-05-10T14:48:18;2.10;;;1.60;;
33864;SDS011;20159;51.072;13.526;2023-05-10T14:50:44;2.55;;;2.03;;
33864;SDS011;20159;51.072;13.526;2023-05-10T14:53:10;2.65;;;1.58;;
33864;SDS011;20159;51.072;13.526;2023-05-10T14:55:36;3.17;;;1.55;;
33864;SDS011;20159;51.072;13.526;2023-05-10T14:58:03;2.10;;;1.60;;
33864;SDS011;20159;51.072;13.526;2023-05-10T15:00:28;2.75;;;1.55;;
33864;SDS011;20159;51.072;13.526;2023-05-10T15:02:54;1.52;;;1.38;;
33864;SDS011;20159;51.072;13.526;2023-05-10T15:05:20;2.05;;;1.50;;
33864;SDS011;20159;51.072;13.526;2023-05-10T15:07:46;2.08;;;1.50;;
33864;SDS011;20159;51.072;13.526;2023-05-10T15:10:11;5.43;;;1.58;;
33864;SDS011;20159;51.072;13.526;2023-05-10T15:12:37;2.00;;;1.48;;
33864;SDS011;20159;51.072;13.526;2023-05-10T15:15:03;3.63;;;2.05;;
33864;SDS011;20159;51.072;13.526;2023-05-10T15:17:29;2.47;;;1.90;;
33864;SDS011;20159;51.072;13.526;2023-05-10T15:19:55;2.15;;;1.90;;
33864;SDS011;20159;51.072;13.526;2023-05-10T15:22:20;3.42;;;1.80;;
33864;SDS011;20159;51.072;13.526;2023-05-10T15:24:46;1.95;;;1.60;;
33864;SDS011;20159;51.072;13.526;2023-05-10T15:27:12;3.30;;;1.67;;
33864;SDS011;20159;51.072;13.526;2023-05-10T15:29:37;2.70;;;1.70;;
33864;SDS011;20159;51.072;13.526;2023-05-10T15:32:03;1.83;;;1.55;;
33864;SDS011;20159;51.072;13.526;2023-05-10T15:34:28;2.30;;;1.80;;
33864;SDS011;20159;51.072;13.526;2023-05-10T15:36:54;2.05;;;1.85;;
33864;SDS011;20159;51.072;13.526;2023-05-10T15:39:20;3.30;;;2.55;;